createdAt,value
2022-11-23T00:01:38.904Z,96228.19
2022-11-23T00:04:40.980Z,96221.94
2022-11-23T00:07:43.087Z,96223.03
2022-11-23T00:10:45.233Z,96223.56
2022-11-23T00:13:47.611Z,96213.84
2022-11-23T00:16:49.671Z,96203.13
2022-11-23T00:19:51.738Z,96204.16
2022-11-23T00:22:53.795Z,96213.91
2022-11-23T00:25:55.865Z,96213.16
2022-11-23T00:28:57.939Z,96204.94
2022-11-23T00:32:02.269Z,96215.13
2022-11-23T00:35:04.765Z,96203.34
2022-11-23T00:38:07.113Z,96202.00
2022-11-23T00:41:12.185Z,96208.34
2022-11-23T00:44:14.301Z,96206.22
2022-11-23T00:47:16.381Z,96203.34
2022-11-23T00:50:18.600Z,96200.19
2022-11-23T00:53:20.667Z,96203.53
2022-11-23T00:56:22.795Z,96194.94
2022-11-23T00:59:24.869Z,96191.53
2022-11-23T01:02:29.088Z,96191.47
2022-11-23T01:05:31.206Z,96177.88
2022-11-23T01:08:34.946Z,96177.78
2022-11-23T01:11:37.045Z,96177.03
2022-11-23T01:14:39.170Z,96167.88
2022-11-23T01:17:41.222Z,96164.22
2022-11-23T01:20:43.949Z,96166.06
2022-11-23T01:23:46.061Z,96168.72
2022-11-23T01:26:52.662Z,96177.13
2022-11-23T01:29:55.292Z,96161.88
2022-11-23T01:32:57.329Z,96161.88
2022-11-23T01:35:59.941Z,96154.22
2022-11-23T01:39:02.459Z,96144.75
2022-11-23T01:42:08.656Z,96148.69
2022-11-23T01:45:57.174Z,96149.78
2022-11-23T01:49:04.607Z,96151.59
2022-11-23T01:52:20.092Z,96146.06
2022-11-23T01:55:22.143Z,96140.25
2022-11-23T01:58:24.233Z,96138.97
2022-11-23T02:01:26.380Z,96143.13
2022-11-23T02:04:34.338Z,96136.03
2022-11-23T02:07:36.398Z,96140.50
2022-11-23T02:10:38.487Z,96134.75
2022-11-23T02:13:46.269Z,96132.63
2022-11-23T02:16:48.336Z,96122.91
2022-11-23T02:20:13.542Z,96130.81
2022-11-23T02:23:34.744Z,96129.19
2022-11-23T02:26:37.327Z,96120.06
2022-11-23T02:29:39.702Z,96119.53
2022-11-23T02:32:42.890Z,96113.78
2022-11-23T02:35:53.898Z,96102.22
2022-11-23T02:38:59.180Z,96091.25
2022-11-23T02:42:01.434Z,96088.88
2022-11-23T02:45:16.355Z,96075.97
2022-11-23T02:48:19.186Z,96075.91
2022-11-23T02:51:21.208Z,96071.16
2022-11-23T02:54:23.251Z,96070.34
2022-11-23T02:57:26.524Z,96067.53
2022-11-23T03:00:28.612Z,96062.50
2022-11-23T03:03:30.689Z,96045.75
2022-11-23T03:06:32.779Z,96066.53
2022-11-23T03:09:34.980Z,96054.78
2022-11-23T03:12:37.925Z,96060.53
2022-11-23T03:15:40.324Z,96044.81
2022-11-23T03:18:43.012Z,96047.16
2022-11-23T03:21:45.165Z,96044.03
2022-11-23T03:24:47.214Z,96043.75
2022-11-23T03:27:51.519Z,96036.16
2022-11-23T03:30:54.509Z,96030.13
2022-11-23T03:33:57.540Z,96020.94
2022-11-23T03:37:01.017Z,96017.25
2022-11-23T03:40:03.214Z,96003.63
2022-11-23T03:43:23.824Z,96000.47
2022-11-23T03:46:25.890Z,96007.53
2022-11-23T03:49:27.918Z,96003.56
2022-11-23T03:52:29.972Z,96004.03
2022-11-23T03:55:33.224Z,95986.31
2022-11-23T03:58:35.842Z,95971.88
2022-11-23T04:01:41.956Z,95973.72
2022-11-23T04:04:50.848Z,95967.16
2022-11-23T04:08:24.857Z,95975.31
2022-11-23T04:11:28.307Z,95981.75
2022-11-23T04:14:30.692Z,95983.34
2022-11-23T04:17:34.025Z,95979.41
2022-11-23T04:20:36.124Z,95975.75
2022-11-23T04:23:38.279Z,95986.44
2022-11-23T04:26:43.472Z,95991.94
2022-11-23T04:29:46.637Z,95989.28
2022-11-23T04:32:48.963Z,95983.88
2022-11-23T04:35:51.101Z,95983.59
2022-11-23T04:38:53.406Z,95985.66
2022-11-23T04:42:01.668Z,95969.69
2022-11-23T04:45:05.773Z,95945.41
2022-11-23T04:48:07.915Z,95915.25
2022-11-23T04:51:11.409Z,95920.22
2022-11-23T04:54:14.044Z,95929.91
2022-11-23T04:57:23.523Z,95929.66
2022-11-23T05:00:27.505Z,95931.72
2022-11-23T05:03:31.614Z,95915.47
2022-11-23T05:06:35.786Z,95898.19
2022-11-23T05:09:38.847Z,95891.41
2022-11-23T05:12:48.486Z,95888.78
2022-11-23T05:15:50.652Z,95884.84
2022-11-23T05:18:58.788Z,95880.41
2022-11-23T05:22:00.939Z,95884.06
2022-11-23T05:25:03.759Z,95881.97
2022-11-23T05:28:30.520Z,95876.47
2022-11-23T05:31:34.120Z,95860.75
2022-11-23T05:34:36.246Z,95866.75
2022-11-23T05:37:39.746Z,95864.16
2022-11-23T05:40:46.544Z,95842.38
2022-11-23T05:43:49.962Z,95840.28
2022-11-23T05:46:57.161Z,95828.50
2022-11-23T05:50:00.011Z,95828.50
2022-11-23T05:53:05.604Z,95822.22
2022-11-23T05:56:08.060Z,95821.41
2022-11-23T05:59:18.158Z,95847.63
2022-11-23T06:02:25.656Z,95840.00
2022-11-23T06:05:33.788Z,95831.13
2022-11-23T06:08:36.233Z,95825.03
2022-11-23T06:11:39.400Z,95832.16
2022-11-23T06:14:48.041Z,95829.03
2022-11-23T06:17:52.938Z,95823.28
2022-11-23T06:21:02.428Z,95813.31
2022-11-23T06:24:05.316Z,95815.16
2022-11-23T06:27:08.118Z,95814.34
2022-11-23T06:30:10.918Z,95811.22
2022-11-23T06:33:13.225Z,95803.59
2022-11-23T06:36:20.460Z,95809.09
2022-11-23T06:39:25.241Z,95793.34
2022-11-23T06:42:42.846Z,95793.34
2022-11-23T06:45:58.270Z,95784.44
2022-11-23T06:49:03.757Z,95777.63
2022-11-23T06:52:05.977Z,95784.97
2022-11-23T06:55:08.635Z,95776.28
2022-11-23T06:58:10.833Z,95771.06
2022-11-23T07:01:13.016Z,95762.72
2022-11-23T07:04:22.238Z,95769.25
2022-11-23T07:07:27.530Z,95762.72
2022-11-23T07:10:39.066Z,95763.78
2022-11-23T07:13:41.131Z,95755.25
2022-11-23T07:16:43.890Z,95748.97
2022-11-23T07:19:46.052Z,95746.59
2022-11-23T07:22:48.261Z,95747.75
2022-11-23T07:25:50.414Z,95736.72
2022-11-23T07:28:52.501Z,95731.47
2022-11-23T07:31:55.794Z,95731.78
2022-11-23T07:35:00.333Z,95726.03
2022-11-23T07:38:04.477Z,95728.38
2022-11-23T07:41:06.840Z,95713.97
2022-11-23T07:44:21.551Z,95706.50
2022-11-23T07:47:24.660Z,95705.41
2022-11-23T07:50:26.883Z,95709.16
2022-11-23T07:53:28.974Z,95697.94
2022-11-23T07:56:31.021Z,95704.44
2022-11-23T07:59:33.286Z,95698.66
2022-11-23T08:02:35.541Z,95696.81
2022-11-23T08:05:37.669Z,95697.16
2022-11-23T08:08:39.751Z,95695.75
2022-11-23T08:11:42.207Z,95698.88
2022-11-23T08:14:44.241Z,95682.97
2022-11-23T08:17:46.264Z,95679.78
2022-11-23T08:20:48.473Z,95677.59
2022-11-23T08:23:50.529Z,95680.59
2022-11-23T08:26:52.660Z,95674.53
2022-11-23T08:29:54.760Z,95665.34
2022-11-23T08:32:56.908Z,95655.03
2022-11-23T08:36:06.019Z,95660.94
2022-11-23T08:39:08.814Z,95658.91
2022-11-23T08:42:10.833Z,95649.38
2022-11-23T08:45:12.957Z,95657.72
2022-11-23T08:48:15.041Z,95649.81
2022-11-23T08:51:22.495Z,95648.31
2022-11-23T08:54:24.699Z,95635.25
2022-11-23T08:57:27.306Z,95630.38
2022-11-23T09:00:29.674Z,95619.19
2022-11-23T09:03:31.739Z,95609.47
2022-11-23T09:06:34.593Z,95608.94
2022-11-23T09:09:36.740Z,95602.81
2022-11-23T09:12:38.840Z,95615.53
2022-11-23T09:15:40.934Z,95624.41
2022-11-23T09:18:42.961Z,95624.41
2022-11-23T09:21:45.026Z,95623.69
2022-11-23T09:24:47.100Z,95614.78
2022-11-23T09:27:49.961Z,95609.56
2022-11-23T09:30:52.498Z,95611.31
2022-11-23T09:33:54.609Z,95610.34
2022-11-23T09:36:59.658Z,95619.22
2022-11-23T09:40:01.772Z,95614.03
2022-11-23T09:43:35.721Z,95604.91
2022-11-23T09:47:24.513Z,95609.72
2022-11-23T09:50:59.450Z,95598.72
2022-11-23T09:54:29.281Z,95618.28
2022-11-23T09:57:32.533Z,95610.22
2022-11-23T10:00:50.354Z,95619.28
2022-11-23T10:03:52.412Z,95619.41
2022-11-23T10:06:58.102Z,95626.91
2022-11-23T10:10:29.325Z,95623.53
2022-11-23T10:13:35.492Z,95619.34
2022-11-23T10:17:09.581Z,95606.59
2022-11-23T10:20:39.021Z,95624.28
2022-11-23T10:23:54.676Z,95628.53
2022-11-23T10:26:56.752Z,95623.34
2022-11-23T10:29:58.972Z,95629.84
2022-11-23T10:33:31.733Z,95622.88
2022-11-23T10:36:36.438Z,95623.88
2022-11-23T10:39:38.575Z,95618.09
2022-11-23T10:42:49.713Z,95629.31
2022-11-23T10:45:54.787Z,95628.53
2022-11-23T10:49:15.647Z,95619.88
2022-11-23T10:52:29.609Z,95619.00
2022-11-23T10:55:33.845Z,95609.16
2022-11-23T10:58:44.387Z,95606.41
2022-11-23T11:01:59.005Z,95610.09
2022-11-23T11:06:07.019Z,95607.63
2022-11-23T11:09:03.395Z,95593.94
2022-11-23T11:12:06.068Z,95596.38
2022-11-23T11:15:12.187Z,95589.56
2022-11-23T11:18:18.561Z,95604.31
2022-11-23T11:21:34.538Z,95609.00
2022-11-23T11:24:44.177Z,95601.25
2022-11-23T11:27:51.949Z,95609.47
2022-11-23T11:31:09.325Z,95606.94
2022-11-23T11:34:48.114Z,95597.09
2022-11-23T11:37:51.336Z,95610.81
2022-11-23T11:40:53.574Z,95611.63
2022-11-23T11:44:21.997Z,95613.25
2022-11-23T11:47:43.701Z,95626.47
2022-11-23T11:50:52.913Z,95637.69
2022-11-23T11:54:25.240Z,95635.69
2022-11-23T11:57:47.825Z,95630.69
2022-11-23T12:00:49.918Z,95626.13
2022-11-23T12:03:56.885Z,95630.03
2022-11-23T12:07:27.518Z,95634.09
2022-11-23T12:10:37.757Z,95643.38
2022-11-23T12:13:42.956Z,95646.06
2022-11-23T12:17:32.575Z,95634.72
2022-11-23T12:20:41.273Z,95628.97
2022-11-23T12:24:23.608Z,95620.69
2022-11-23T12:28:11.212Z,95619.94
2022-11-23T12:31:24.744Z,95632.81
2022-11-23T12:34:41.702Z,95639.16
2022-11-23T12:37:53.883Z,95645.19
2022-11-23T12:41:50.764Z,95648.72
2022-11-23T12:45:20.734Z,95647.78
2022-11-23T12:49:03.166Z,95654.84
2022-11-23T12:52:35.471Z,95650.25
2022-11-23T12:55:48.489Z,95660.66
2022-11-23T12:58:50.719Z,95654.84
2022-11-23T13:01:59.338Z,95655.75
2022-11-23T13:05:29.139Z,95644.56
2022-11-23T13:09:28.674Z,95648.41
2022-11-23T13:13:04.542Z,95646.72
2022-11-23T13:16:31.315Z,95664.50
2022-11-23T13:19:58.928Z,95655.44
2022-11-23T13:23:01.579Z,95657.78
2022-11-23T13:26:21.218Z,95662.34
2022-11-23T13:29:51.200Z,95668.13
2022-11-23T13:33:23.667Z,95678.25
2022-11-23T13:36:56.589Z,95673.44
2022-11-23T13:39:58.406Z,95682.97
2022-11-23T13:43:18.561Z,95673.47
2022-11-23T13:46:28.912Z,95678.75
2022-11-23T13:49:35.485Z,95688.44
2022-11-23T13:52:37.645Z,95693.19
2022-11-23T13:55:39.888Z,95699.00
2022-11-23T13:58:42.023Z,95704.97
2022-11-23T14:02:22.733Z,95708.28
2022-11-23T14:05:47.794Z,95711.88
2022-11-23T14:09:17.524Z,95716.19
2022-11-23T14:12:43.401Z,95716.97
2022-11-23T14:15:55.983Z,95720.56
2022-11-23T14:19:45.448Z,95721.88
2022-11-23T14:23:21.150Z,95723.16
2022-11-23T14:26:34.561Z,95719.19
2022-11-23T14:30:14.557Z,95729.00
2022-11-23T14:33:43.785Z,95725.03
2022-11-23T14:37:23.950Z,95732.91
2022-11-23T14:41:07.105Z,95733.13
2022-11-23T14:44:11.848Z,95740.19
2022-11-23T14:47:14.075Z,95747.63
2022-11-23T14:50:28.358Z,95751.41
2022-11-23T14:53:43.981Z,95762.75
2022-11-23T14:56:50.507Z,95756.06
2022-11-23T15:00:01.815Z,95767.97
2022-11-23T15:03:48.837Z,95767.66
2022-11-23T15:06:45.822Z,95766.66
2022-11-23T15:10:18.156Z,95768.84
2022-11-23T15:13:42.815Z,95771.94
2022-11-23T15:16:45.062Z,95765.31
2022-11-23T15:20:00.637Z,95762.16
2022-11-23T15:23:03.198Z,95768.53
2022-11-23T15:26:24.051Z,95761.19
2022-11-23T15:29:37.353Z,95770.28
2022-11-23T15:32:39.844Z,95767.88
2022-11-23T15:35:42.023Z,95768.50
2022-11-23T15:38:44.228Z,95777.28
2022-11-23T15:41:47.283Z,95777.16
2022-11-23T15:44:51.065Z,95775.19
2022-11-23T15:48:01.518Z,95783.97
2022-11-23T15:51:05.754Z,95796.66
2022-11-23T15:54:23.073Z,95793.50
2022-11-23T15:57:26.347Z,95787.25
2022-11-23T16:00:28.657Z,95798.06
2022-11-23T16:04:28.856Z,95807.94
2022-11-23T16:07:30.860Z,95799.50
2022-11-23T16:10:34.976Z,95808.53
2022-11-23T16:13:39.062Z,95815.22
2022-11-23T16:16:45.822Z,95817.44
2022-11-23T16:19:55.431Z,95828.44
2022-11-23T16:22:57.880Z,95844.22
2022-11-23T16:26:04.564Z,95850.50
2022-11-23T16:29:06.664Z,95846.78
2022-11-23T16:32:41.239Z,95846.06
2022-11-23T16:35:43.460Z,95844.44
2022-11-23T16:38:45.493Z,95834.94
2022-11-23T16:41:47.647Z,95847.06
2022-11-23T16:44:49.684Z,95836.88
2022-11-23T16:47:56.747Z,95845.84
2022-11-23T16:50:58.788Z,95854.44
2022-11-23T16:54:21.731Z,95854.97
2022-11-23T16:57:33.857Z,95863.38
2022-11-23T17:00:36.117Z,95861.06
2022-11-23T17:03:41.248Z,95879.41
2022-11-23T17:06:44.132Z,95889.94
2022-11-23T17:09:46.792Z,95881.34
2022-11-23T17:12:54.231Z,95864.88
2022-11-23T17:15:56.676Z,95862.78
2022-11-23T17:18:59.141Z,95869.41
2022-11-23T17:22:01.477Z,95857.31
2022-11-23T17:25:07.860Z,95853.03
2022-11-23T17:28:16.412Z,95847.56
2022-11-23T17:31:18.703Z,95855.47
2022-11-23T17:34:21.076Z,95856.00
2022-11-23T17:37:26.075Z,95864.38
2022-11-23T17:40:28.418Z,95870.09
2022-11-23T17:43:30.575Z,95874.00
2022-11-23T17:46:33.827Z,95893.78
2022-11-23T17:49:36.356Z,95917.69
2022-11-23T17:52:42.135Z,95910.03
2022-11-23T17:55:44.237Z,95913.84
2022-11-23T17:58:46.537Z,95901.38
2022-11-23T18:01:49.129Z,95914.88
2022-11-23T18:05:00.759Z,95909.44
2022-11-23T18:08:03.586Z,95916.47
2022-11-23T18:11:13.631Z,95914.47
2022-11-23T18:14:18.219Z,95917.03
2022-11-23T18:17:48.078Z,95924.75
2022-11-23T18:20:51.406Z,95931.59
2022-11-23T18:23:53.737Z,95931.75
2022-11-23T18:26:55.857Z,95933.88
2022-11-23T18:29:58.085Z,95938.16
2022-11-23T18:33:00.129Z,95931.44
2022-11-23T18:36:05.330Z,95946.34
2022-11-23T18:39:07.860Z,95962.25
2022-11-23T18:42:09.917Z,95962.25
2022-11-23T18:45:11.950Z,95964.56
2022-11-23T18:48:14.310Z,95961.22
2022-11-23T18:51:16.967Z,95961.28
2022-11-23T18:54:19.182Z,95966.78
2022-11-23T18:57:21.232Z,95959.41
2022-11-23T19:00:23.693Z,95962.31
2022-11-23T19:03:25.752Z,95968.69
2022-11-23T19:06:27.854Z,95970.97
2022-11-23T19:09:29.919Z,95974.53
2022-11-23T19:12:32.089Z,95970.75
2022-11-23T19:15:34.251Z,95977.41
2022-11-23T19:18:36.407Z,95989.00
2022-11-23T19:21:39.213Z,95995.41
2022-11-23T19:24:41.303Z,96000.25
2022-11-23T19:27:44.169Z,96003.44
2022-11-23T19:30:46.257Z,96005.72
2022-11-23T19:33:49.360Z,96011.34
2022-11-23T19:36:51.408Z,96014.94
2022-11-23T19:39:53.448Z,96014.00
2022-11-23T19:42:55.477Z,96014.72
2022-11-23T19:45:58.242Z,96014.72
2022-11-23T19:49:00.496Z,96014.72
2022-11-23T19:52:03.536Z,96038.53
2022-11-23T19:55:08.308Z,96033.19
2022-11-23T19:58:12.015Z,96036.41
2022-11-23T20:01:18.259Z,96029.09
2022-11-23T20:04:20.459Z,96045.41
2022-11-23T20:07:22.664Z,96039.66
2022-11-23T20:10:25.071Z,96041.13
2022-11-23T20:13:27.125Z,96046.88
2022-11-23T20:16:30.884Z,96055.47
2022-11-23T20:19:33.185Z,96064.88
2022-11-23T20:22:35.861Z,96057.22
2022-11-23T20:25:38.654Z,96061.94
2022-11-23T20:28:43.886Z,96050.88
2022-11-23T20:31:46.160Z,96052.78
2022-11-23T20:34:48.264Z,96057.31
2022-11-23T20:37:50.355Z,96056.22
2022-11-23T20:40:52.429Z,96058.50
2022-11-23T20:44:03.182Z,96072.25
2022-11-23T20:47:05.347Z,96078.88
2022-11-23T20:50:08.310Z,96084.34
2022-11-23T20:53:10.351Z,96079.28
2022-11-23T20:56:13.525Z,96104.66
2022-11-23T20:59:15.829Z,96110.53
2022-11-23T21:02:17.943Z,96117.47
2022-11-23T21:05:20.286Z,96122.91
2022-11-23T21:08:33.108Z,96123.75
2022-11-23T21:11:55.378Z,96104.47
2022-11-23T21:14:57.531Z,96121.34
2022-11-23T21:17:59.706Z,96109.19
2022-11-23T21:21:02.833Z,96123.66
2022-11-23T21:24:05.942Z,96113.84
2022-11-23T21:27:10.294Z,96116.75
2022-11-23T21:30:12.808Z,96118.63
2022-11-23T21:33:14.841Z,96135.41
2022-11-23T21:36:17.034Z,96126.72
2022-11-23T21:39:19.227Z,96115.66
2022-11-23T21:42:21.344Z,96116.47
2022-11-23T21:45:23.429Z,96116.56
2022-11-23T21:48:25.494Z,96119.28
2022-11-23T21:51:29.996Z,96131.88
2022-11-23T21:54:32.320Z,96130.03
2022-11-23T21:57:34.557Z,96147.13
2022-11-23T22:00:36.662Z,96149.44
2022-11-23T22:03:55.595Z,96158.91
2022-11-23T22:06:57.679Z,96148.84
2022-11-23T22:09:59.718Z,96162.66
2022-11-23T22:13:01.849Z,96170.56
2022-11-23T22:16:32.555Z,96172.06
2022-11-23T22:19:34.830Z,96182.63
2022-11-23T22:22:36.880Z,96188.66
2022-11-23T22:25:41.873Z,96218.38
2022-11-23T22:28:48.796Z,96215.75
2022-11-23T22:31:50.934Z,96210.25
2022-11-23T22:34:53.013Z,96223.78
2022-11-23T22:37:55.665Z,96221.97
2022-11-23T22:40:58.483Z,96223.34
2022-11-23T22:44:00.568Z,96227.53
2022-11-23T22:47:02.660Z,96241.78
2022-11-23T22:50:05.333Z,96247.53
2022-11-23T22:53:07.485Z,96258.34
2022-11-23T22:56:14.742Z,96262.00
2022-11-23T22:59:16.809Z,96265.16
2022-11-23T23:02:19.039Z,96253.06
2022-11-23T23:05:21.176Z,96268.78
2022-11-23T23:08:24.278Z,96268.81
2022-11-23T23:11:28.698Z,96278.81
2022-11-23T23:14:30.909Z,96283.25
2022-11-23T23:17:33.149Z,96304.78
2022-11-23T23:20:35.878Z,96305.31
2022-11-23T23:23:38.847Z,96298.94
2022-11-23T23:26:40.978Z,96314.50
2022-11-23T23:29:43.030Z,96325.06
2022-11-23T23:32:45.315Z,96334.56
2022-11-23T23:35:47.522Z,96339.56
2022-11-23T23:38:49.893Z,96347.16
2022-11-23T23:41:52.014Z,96333.50
2022-11-23T23:44:54.144Z,96328.22
2022-11-23T23:47:57.915Z,96325.56
2022-11-23T23:51:10.159Z,96330.78
2022-11-23T23:54:12.305Z,96350.25
2022-11-23T23:57:14.389Z,96350.34
